createdAt,value
2018-10-18T00:08:14.492Z,97.92
2018-10-18T00:28:56.671Z,98.96
2018-10-18T00:49:35.938Z,98.75
2018-10-18T01:10:12.133Z,99.20
2018-10-18T01:30:58.460Z,99.04
2018-10-18T01:51:37.088Z,99.75
2018-10-18T02:12:21.308Z,100.00
2018-10-18T02:33:02.409Z,100.00
2018-10-18T02:53:36.452Z,100.00
2018-10-18T03:14:16.948Z,100.00
2018-10-18T03:34:54.062Z,100.00
2018-10-18T03:55:33.328Z,100.00
2018-10-18T04:16:15.666Z,100.00
2018-10-18T04:36:55.508Z,100.00
2018-10-18T04:57:32.354Z,100.00
2018-10-18T05:18:10.389Z,100.00
2018-10-18T05:38:48.739Z,100.00
2018-10-18T05:59:31.261Z,100.00
2018-10-18T06:20:07.270Z,100.00
2018-10-18T06:40:46.530Z,100.00
2018-10-18T07:01:25.803Z,100.00
2018-10-18T07:22:01.996Z,100.00
2018-10-18T07:42:39.412Z,100.00
2018-10-18T08:03:18.683Z,100.00
2018-10-18T08:23:59.790Z,100.00
2018-10-18T08:44:41.394Z,100.00
2018-10-18T09:05:23.690Z,100.00
2018-10-18T09:26:04.656Z,100.00
2018-10-18T09:46:42.077Z,100.00
2018-10-18T10:07:19.191Z,100.00
2018-10-18T10:27:54.464Z,100.00
2018-10-18T10:48:36.800Z,100.00
2018-10-18T11:09:18.651Z,100.00
2018-10-18T11:29:54.472Z,100.00
2018-10-18T11:50:30.608Z,99.26
2018-10-18T12:11:04.709Z,98.09
2018-10-18T12:31:42.989Z,95.49
2018-10-18T12:52:22.257Z,94.38
2018-10-18T13:12:59.409Z,93.93
2018-10-18T13:33:39.871Z,92.15
2018-10-18T13:54:23.129Z,91.77
2018-10-18T14:14:57.182Z,88.74
2018-10-18T14:35:37.669Z,90.13
2018-10-18T14:56:17.859Z,90.55
2018-10-18T15:16:57.170Z,90.46
2018-10-18T15:37:37.702Z,92.01
2018-10-18T15:58:12.579Z,93.62
2018-10-18T16:18:50.924Z,94.49
2018-10-18T16:39:34.517Z,96.30
2018-10-18T17:00:11.679Z,98.01
2018-10-18T17:20:51.953Z,98.70
2018-10-18T17:41:34.130Z,99.25
2018-10-18T18:02:14.383Z,100.00
2018-10-18T18:22:49.627Z,100.00
2018-10-18T18:43:24.874Z,98.94
2018-10-18T19:04:08.124Z,98.80
2018-10-18T19:24:44.324Z,98.76
2018-10-18T19:45:32.834Z,99.99
2018-10-18T20:06:12.066Z,100.00
2018-10-18T20:26:50.155Z,100.00
2018-10-18T20:47:29.455Z,100.00
2018-10-18T21:08:12.640Z,100.00
2018-10-18T21:28:50.058Z,100.00
2018-10-18T21:49:29.338Z,100.00
2018-10-18T22:10:11.662Z,100.00
2018-10-18T22:30:50.930Z,100.00
2018-10-18T22:51:33.006Z,100.00
2018-10-18T23:12:19.597Z,100.00
2018-10-18T23:32:56.762Z,100.00
2018-10-18T23:53:38.129Z,100.00
